createdAt,value
2022-09-01T00:00:02.709Z,1.70
2022-09-01T00:02:33.522Z,1.85
2022-09-01T00:05:00.694Z,1.70
2022-09-01T00:07:32.078Z,1.50
2022-09-01T00:10:00.353Z,1.70
2022-09-01T00:12:28.908Z,1.60
2022-09-01T00:14:56.772Z,1.70
2022-09-01T00:17:25.564Z,1.40
2022-09-01T00:19:53.633Z,1.63
2022-09-01T00:22:21.768Z,1.50
2022-09-01T00:24:49.840Z,1.65
2022-09-01T00:27:17.640Z,1.48
2022-09-01T00:29:45.059Z,1.60
2022-09-01T00:32:12.348Z,1.52
2022-09-01T00:34:40.217Z,1.42
2022-09-01T00:37:08.033Z,1.60
2022-09-01T00:39:35.904Z,1.70
2022-09-01T00:42:03.237Z,1.50
2022-09-01T00:44:31.391Z,1.40
2022-09-01T00:47:00.041Z,1.50
2022-09-01T00:49:40.029Z,1.63
2022-09-01T00:52:15.908Z,1.77
2022-09-01T00:54:50.524Z,1.50
2022-09-01T00:57:17.857Z,1.40
2022-09-01T00:59:57.151Z,1.40
2022-09-01T01:02:25.609Z,1.45
2022-09-01T01:04:52.913Z,1.45
2022-09-01T01:07:23.110Z,1.40
2022-09-01T01:09:51.581Z,1.60
2022-09-01T01:12:21.447Z,1.63
2022-09-01T01:14:50.875Z,1.30
2022-09-01T01:17:22.456Z,1.70
2022-09-01T01:20:14.115Z,1.50
2022-09-01T01:23:06.101Z,1.38
2022-09-01T01:25:42.320Z,1.52
2022-09-01T01:28:15.984Z,1.70
2022-09-01T01:30:51.551Z,1.33
2022-09-01T01:33:28.986Z,1.42
2022-09-01T01:35:57.886Z,1.40
2022-09-01T01:38:28.063Z,1.50
2022-09-01T01:40:56.455Z,1.23
2022-09-01T01:43:26.581Z,1.40
2022-09-01T01:45:59.490Z,1.23
2022-09-01T01:48:34.827Z,1.52
2022-09-01T01:51:04.964Z,1.65
2022-09-01T01:53:34.063Z,1.60
2022-09-01T01:56:02.399Z,1.42
2022-09-01T01:58:35.038Z,1.55
2022-09-01T02:01:10.897Z,1.73
2022-09-01T02:03:39.053Z,1.50
2022-09-01T02:06:10.034Z,1.77
2022-09-01T02:08:39.410Z,1.85
2022-09-01T02:11:07.874Z,1.65
2022-09-01T02:13:35.317Z,1.70
2022-09-01T02:16:13.527Z,1.90
2022-09-01T02:18:48.278Z,1.75
2022-09-01T02:21:19.734Z,1.58
2022-09-01T02:24:01.251Z,1.33
2022-09-01T02:26:40.846Z,1.55
2022-09-01T02:29:18.287Z,1.58
2022-09-01T02:31:47.817Z,1.45
2022-09-01T02:34:15.458Z,1.58
2022-09-01T02:36:48.104Z,1.60
2022-09-01T02:39:23.236Z,1.65
2022-09-01T02:41:51.186Z,1.40
2022-09-01T02:44:23.872Z,1.40
2022-09-01T02:46:52.003Z,1.38
2022-09-01T02:49:29.908Z,1.40
2022-09-01T02:52:02.089Z,1.70
2022-09-01T02:54:32.688Z,1.50
2022-09-01T02:57:00.434Z,1.70
2022-09-01T02:59:29.956Z,1.63
2022-09-01T03:02:00.984Z,1.60
2022-09-01T03:04:29.249Z,1.60
2022-09-01T03:06:59.086Z,1.42
2022-09-01T03:09:27.295Z,1.50
2022-09-01T03:11:55.289Z,1.50
2022-09-01T03:14:25.032Z,1.50
2022-09-01T03:16:52.771Z,1.50
2022-09-01T03:19:20.324Z,1.42
2022-09-01T03:21:49.241Z,1.63
2022-09-01T03:24:22.657Z,1.85
2022-09-01T03:26:52.814Z,1.80
2022-09-01T03:29:21.215Z,1.75
2022-09-01T03:31:48.957Z,1.73
2022-09-01T03:34:19.077Z,1.80
2022-09-01T03:36:51.271Z,1.67
2022-09-01T03:39:26.717Z,1.70
2022-09-01T03:41:55.474Z,1.70
2022-09-01T03:44:22.586Z,1.67
2022-09-01T03:46:49.664Z,1.80
2022-09-01T03:49:25.007Z,1.70
2022-09-01T03:51:55.402Z,1.60
2022-09-01T03:54:25.827Z,1.55
2022-09-01T03:56:53.899Z,1.52
2022-09-01T03:59:22.763Z,1.67
2022-09-01T04:01:51.374Z,1.65
2022-09-01T04:04:18.500Z,1.58
2022-09-01T04:06:46.395Z,1.50
2022-09-01T04:09:14.362Z,1.80
2022-09-01T04:11:46.952Z,1.50
2022-09-01T04:14:16.451Z,1.73
2022-09-01T04:17:04.874Z,1.70
2022-09-01T04:19:37.087Z,1.52
2022-09-01T04:22:05.288Z,1.70
2022-09-01T04:24:45.986Z,1.60
2022-09-01T04:27:15.102Z,1.73
2022-09-01T04:29:43.068Z,1.58
2022-09-01T04:32:13.272Z,1.88
2022-09-01T04:34:50.071Z,1.67
2022-09-01T04:37:23.741Z,1.60
2022-09-01T04:39:57.303Z,1.55
2022-09-01T04:42:27.432Z,1.45
2022-09-01T04:44:57.789Z,1.65
2022-09-01T04:47:35.379Z,1.27
2022-09-01T04:50:14.409Z,1.52
2022-09-01T04:52:47.916Z,1.30
2022-09-01T04:55:30.551Z,1.65
2022-09-01T04:58:01.425Z,1.20
2022-09-01T05:00:32.418Z,1.63
2022-09-01T05:03:06.307Z,1.48
2022-09-01T05:06:17.933Z,1.27
2022-09-01T05:08:58.395Z,1.20
2022-09-01T05:11:43.475Z,1.30
2022-09-01T05:14:21.523Z,1.30
2022-09-01T05:16:51.546Z,1.48
2022-09-01T05:19:21.166Z,1.10
2022-09-01T05:21:49.755Z,1.20
2022-09-01T05:24:21.854Z,1.05
2022-09-01T05:26:51.114Z,1.20
2022-09-01T05:29:19.276Z,1.27
2022-09-01T05:31:50.303Z,0.98
2022-09-01T05:34:27.210Z,1.45
2022-09-01T05:39:25.094Z,1.23
2022-09-01T05:41:54.040Z,1.27
2022-09-01T05:44:25.918Z,1.60
2022-09-01T05:46:58.433Z,1.60
2022-09-01T05:49:26.972Z,1.27
2022-09-01T05:51:59.288Z,1.33
2022-09-01T05:54:29.334Z,1.40
2022-09-01T05:57:12.713Z,1.55
2022-09-01T05:59:54.493Z,1.30
2022-09-01T06:02:27.413Z,1.17
2022-09-01T06:04:57.426Z,1.35
2022-09-01T06:07:31.155Z,1.25
2022-09-01T06:10:01.287Z,1.17
2022-09-01T06:12:29.458Z,1.20
2022-09-01T06:14:58.131Z,1.20
2022-09-01T06:17:27.104Z,1.10
2022-09-01T06:19:59.034Z,1.30
2022-09-01T06:22:28.639Z,1.20
2022-09-01T06:25:02.253Z,1.23
2022-09-01T06:27:34.763Z,1.13
2022-09-01T06:30:03.082Z,1.30
2022-09-01T06:32:38.636Z,1.08
2022-09-01T06:35:09.182Z,1.23
2022-09-01T06:37:40.053Z,1.17
2022-09-01T06:40:17.328Z,1.10
2022-09-01T06:42:47.279Z,1.25
2022-09-01T06:45:17.852Z,1.00
2022-09-01T06:47:47.402Z,1.30
2022-09-01T06:51:14.912Z,0.98
2022-09-01T06:55:59.644Z,1.08
2022-09-01T06:58:26.714Z,1.40
2022-09-01T07:00:54.851Z,0.95
2022-09-01T07:03:25.108Z,1.17
2022-09-01T07:09:46.939Z,1.25
2022-09-01T07:12:30.486Z,1.00
2022-09-01T07:17:52.621Z,1.23
2022-09-01T07:20:25.945Z,1.30
2022-09-01T07:23:04.501Z,1.30
2022-09-01T07:28:39.970Z,1.05
2022-09-01T07:39:48.671Z,1.38
2022-09-01T07:42:31.579Z,1.50
2022-09-01T07:47:19.537Z,1.13
2022-09-01T07:51:42.129Z,1.20
2022-09-01T07:54:14.039Z,1.30
2022-09-01T07:56:42.170Z,1.92
2022-09-01T07:59:15.387Z,1.60
2022-09-01T08:02:18.853Z,1.40
2022-09-01T08:04:49.108Z,1.25
2022-09-01T08:07:18.458Z,1.30
2022-09-01T08:09:45.877Z,1.10
2022-09-01T08:12:15.872Z,1.13
2022-09-01T08:17:57.057Z,1.40
2022-09-01T08:20:26.687Z,1.10
2022-09-01T08:23:00.190Z,1.50
2022-09-01T08:25:33.610Z,1.50
2022-09-01T08:28:02.496Z,1.40
2022-09-01T08:30:33.063Z,1.13
2022-09-01T08:33:18.053Z,1.08
2022-09-01T08:35:49.382Z,1.63
2022-09-01T08:38:17.895Z,1.42
2022-09-01T08:40:56.303Z,1.40
2022-09-01T08:43:44.900Z,1.20
2022-09-01T08:46:29.538Z,1.38
2022-09-01T08:52:11.216Z,1.40
2022-09-01T08:54:47.596Z,1.58
2022-09-01T08:57:27.645Z,1.25
2022-09-01T09:00:16.260Z,1.27
2022-09-01T09:03:07.714Z,1.70
2022-09-01T09:05:43.452Z,1.27
2022-09-01T09:08:33.204Z,1.60
2022-09-01T09:11:03.941Z,1.40
2022-09-01T09:14:11.447Z,1.48
2022-09-01T09:16:44.954Z,1.33
2022-09-01T09:19:17.767Z,1.50
2022-09-01T09:21:50.356Z,1.20
2022-09-01T09:24:56.674Z,1.60
2022-09-01T09:27:32.514Z,1.38
2022-09-01T09:30:09.551Z,1.98
2022-09-01T09:33:24.927Z,1.70
2022-09-01T09:35:48.049Z,5.47
2022-09-01T09:38:21.668Z,2.67
2022-09-01T09:41:17.810Z,1.70
2022-09-01T09:43:52.229Z,1.75
2022-09-01T09:46:31.463Z,1.63
2022-09-01T09:49:35.939Z,1.80
2022-09-01T09:54:38.329Z,1.35
2022-09-01T09:57:09.032Z,1.90
2022-09-01T09:59:57.692Z,1.60
2022-09-01T10:02:36.488Z,1.30
2022-09-01T10:05:30.317Z,1.75
2022-09-01T10:07:58.522Z,1.25
2022-09-01T10:10:41.399Z,1.15
2022-09-01T10:13:13.890Z,1.55
2022-09-01T10:15:49.191Z,1.40
2022-09-01T10:18:31.515Z,1.75
2022-09-01T10:21:04.544Z,1.50
2022-09-01T10:23:35.088Z,1.40
2022-09-01T10:26:09.510Z,1.23
2022-09-01T10:29:00.214Z,1.40
2022-09-01T10:31:32.473Z,1.65
2022-09-01T10:34:05.553Z,1.38
2022-09-01T10:36:35.742Z,1.40
2022-09-01T10:39:06.484Z,1.30
2022-09-01T10:42:00.014Z,1.98
2022-09-01T10:44:39.277Z,2.92
2022-09-01T10:47:30.274Z,2.50
2022-09-01T10:49:59.086Z,2.33
2022-09-01T10:52:43.495Z,1.85
2022-09-01T10:55:25.245Z,1.75
2022-09-01T11:01:48.386Z,1.40
2022-09-01T11:04:41.115Z,1.67
2022-09-01T11:07:38.877Z,1.40
2022-09-01T11:10:33.298Z,1.73
2022-09-01T11:13:32.104Z,1.60
2022-09-01T11:16:50.216Z,1.20
2022-09-01T11:19:32.908Z,1.40
2022-09-01T11:22:22.105Z,1.40
2022-09-01T11:25:12.104Z,1.70
2022-09-01T11:27:49.179Z,1.33
2022-09-01T11:30:23.385Z,1.30
2022-09-01T11:32:58.552Z,1.30
2022-09-01T11:35:28.994Z,1.27
2022-09-01T11:38:03.425Z,1.40
2022-09-01T11:40:33.888Z,1.20
2022-09-01T11:43:12.663Z,1.10
2022-09-01T11:46:07.340Z,1.10
2022-09-01T11:48:36.865Z,1.08
2022-09-01T11:51:05.097Z,1.02
2022-09-01T11:53:32.643Z,1.15
2022-09-01T11:56:24.744Z,1.30
2022-09-01T11:58:52.745Z,1.05
2022-09-01T12:01:23.920Z,0.98
2022-09-01T12:03:53.299Z,0.90
2022-09-01T12:06:26.642Z,0.80
2022-09-01T12:08:59.388Z,1.10
2022-09-01T12:11:34.904Z,1.05
2022-09-01T12:14:11.640Z,0.82
2022-09-01T12:16:42.828Z,1.10
2022-09-01T12:19:31.329Z,1.10
2022-09-01T12:22:15.016Z,0.85
2022-09-01T12:24:47.808Z,1.00
2022-09-01T12:27:16.157Z,1.08
2022-09-01T12:29:46.059Z,1.02
2022-09-01T12:32:21.284Z,1.08
2022-09-01T12:37:42.432Z,0.93
2022-09-01T12:40:32.117Z,1.13
2022-09-01T12:42:59.481Z,0.90
2022-09-01T12:45:56.529Z,1.10
2022-09-01T12:48:44.761Z,1.60
2022-09-01T12:51:29.249Z,1.10
2022-09-01T12:54:04.819Z,1.20
2022-09-01T12:56:39.363Z,1.23
2022-09-01T12:59:15.588Z,1.50
2022-09-01T13:01:45.058Z,1.20
2022-09-01T13:04:14.306Z,1.40
2022-09-01T13:06:42.347Z,1.40
2022-09-01T13:09:10.360Z,1.08
2022-09-01T13:14:25.718Z,1.25
2022-09-01T13:16:52.875Z,1.13
2022-09-01T13:19:27.398Z,1.52
2022-09-01T13:21:55.172Z,1.50
2022-09-01T13:24:27.894Z,1.20
2022-09-01T13:29:47.537Z,1.40
2022-09-01T13:32:18.296Z,1.20
2022-09-01T13:34:47.141Z,1.00
2022-09-01T13:37:14.250Z,1.15
2022-09-01T13:39:41.326Z,1.10
2022-09-01T13:42:08.528Z,1.45
2022-09-01T13:44:35.749Z,1.10
2022-09-01T13:50:11.035Z,1.20
2022-09-01T13:52:40.284Z,1.08
2022-09-01T13:55:10.566Z,0.95
2022-09-01T13:57:38.798Z,1.13
2022-09-01T14:00:13.034Z,0.93
2022-09-01T14:02:49.216Z,1.10
2022-09-01T14:05:22.458Z,0.98
2022-09-01T14:07:49.853Z,0.95
2022-09-01T14:10:17.980Z,1.13
2022-09-01T14:12:46.683Z,0.90
2022-09-01T14:15:17.586Z,0.90
2022-09-01T14:17:52.000Z,0.90
2022-09-01T14:20:21.877Z,0.90
2022-09-01T14:22:50.761Z,0.90
2022-09-01T14:25:19.545Z,1.08
2022-09-01T14:27:47.557Z,0.80
2022-09-01T14:30:21.280Z,0.82
2022-09-01T14:32:49.762Z,1.00
2022-09-01T14:35:18.987Z,0.90
2022-09-01T14:37:47.642Z,1.00
2022-09-01T14:40:18.412Z,1.17
2022-09-01T14:42:49.252Z,0.93
2022-09-01T14:45:19.905Z,1.27
2022-09-01T14:47:48.569Z,1.13
2022-09-01T14:50:20.060Z,1.02
2022-09-01T14:52:53.835Z,1.17
2022-09-01T14:55:26.120Z,1.10
2022-09-01T14:57:54.662Z,1.02
2022-09-01T15:00:25.146Z,0.93
2022-09-01T15:02:54.428Z,0.90
2022-09-01T15:05:22.474Z,1.00
2022-09-01T15:07:49.806Z,1.10
2022-09-01T15:10:24.777Z,1.10
2022-09-01T15:12:54.688Z,1.25
2022-09-01T15:15:22.535Z,1.23
2022-09-01T15:17:49.821Z,0.90
2022-09-01T15:20:35.402Z,1.10
2022-09-01T15:23:02.899Z,1.17
2022-09-01T15:25:29.922Z,0.93
2022-09-01T15:27:57.064Z,1.10
2022-09-01T15:30:24.069Z,1.10
2022-09-01T15:32:53.193Z,1.15
2022-09-01T15:35:21.396Z,1.17
2022-09-01T15:37:49.526Z,1.20
2022-09-01T15:40:17.599Z,0.98
2022-09-01T15:42:45.287Z,0.88
2022-09-01T15:45:16.110Z,1.30
2022-09-01T15:47:45.593Z,1.10
2022-09-01T15:50:21.659Z,1.10
2022-09-01T15:52:59.713Z,1.20
2022-09-01T15:55:30.400Z,1.00
2022-09-01T15:57:58.983Z,0.95
2022-09-01T16:00:27.720Z,1.15
2022-09-01T16:02:56.669Z,1.30
2022-09-01T16:05:25.390Z,1.00
2022-09-01T16:07:53.831Z,1.15
2022-09-01T16:10:21.884Z,0.80
2022-09-01T16:12:51.883Z,0.93
2022-09-01T16:15:23.053Z,1.00
2022-09-01T16:18:23.804Z,1.00
2022-09-01T16:20:50.905Z,1.00
2022-09-01T16:23:21.719Z,0.80
2022-09-01T16:25:49.250Z,1.20
2022-09-01T16:28:35.875Z,0.90
2022-09-01T16:31:05.999Z,1.00
2022-09-01T16:33:34.349Z,0.90
2022-09-01T16:36:18.313Z,0.80
2022-09-01T16:38:53.357Z,0.93
2022-09-01T16:41:44.763Z,0.93
2022-09-01T16:44:35.966Z,0.90
2022-09-01T16:47:12.129Z,1.08
2022-09-01T16:49:56.866Z,0.60
2022-09-01T16:52:31.735Z,0.77
2022-09-01T16:55:05.298Z,0.90
2022-09-01T16:57:41.811Z,1.00
2022-09-01T17:00:14.643Z,0.70
2022-09-01T17:03:00.665Z,1.00
2022-09-01T17:05:43.617Z,0.77
2022-09-01T17:08:29.638Z,0.80
2022-09-01T17:11:18.706Z,0.90
2022-09-01T17:13:55.915Z,0.93
2022-09-01T17:16:38.406Z,0.68
2022-09-01T17:19:10.615Z,0.80
2022-09-01T17:21:53.934Z,1.00
2022-09-01T17:24:39.342Z,0.90
2022-09-01T17:27:14.773Z,0.70
2022-09-01T17:29:51.914Z,0.90
2022-09-01T17:33:05.059Z,0.70
2022-09-01T17:35:58.653Z,1.10
2022-09-01T17:38:38.196Z,0.75
2022-09-01T17:41:34.808Z,1.10
2022-09-01T17:46:55.290Z,0.90
2022-09-01T17:49:28.978Z,1.10
2022-09-01T17:52:28.560Z,1.00
2022-09-01T17:55:18.916Z,0.95
2022-09-01T17:58:06.579Z,1.00
2022-09-01T18:00:52.829Z,0.90
2022-09-01T18:03:29.872Z,1.13
2022-09-01T18:06:04.543Z,0.95
2022-09-01T18:08:48.129Z,1.00
2022-09-01T18:11:21.493Z,1.00
2022-09-01T18:14:07.498Z,1.13
2022-09-01T18:16:57.470Z,0.80
2022-09-01T18:19:32.432Z,1.15
2022-09-01T18:22:25.830Z,1.05
2022-09-01T18:25:07.413Z,0.85
2022-09-01T18:27:35.904Z,0.95
2022-09-01T18:30:03.106Z,0.90
2022-09-01T18:32:41.615Z,1.20
2022-09-01T18:35:27.258Z,1.00
2022-09-01T18:38:12.938Z,1.33
2022-09-01T18:41:04.654Z,1.20
2022-09-01T18:43:43.080Z,1.17
2022-09-01T18:46:33.493Z,1.15
2022-09-01T18:49:28.832Z,1.27
2022-09-01T18:52:21.109Z,1.00
2022-09-01T18:55:04.262Z,1.30
2022-09-01T18:57:37.507Z,1.33
2022-09-01T19:00:17.765Z,1.52
2022-09-01T19:03:24.568Z,1.40
2022-09-01T19:06:17.448Z,1.30
2022-09-01T19:09:25.921Z,1.40
2022-09-01T19:12:06.315Z,1.45
2022-09-01T19:14:52.812Z,1.50
2022-09-01T19:17:44.676Z,1.50
2022-09-01T19:20:23.450Z,1.65
2022-09-01T19:22:56.700Z,1.50
2022-09-01T19:25:34.303Z,1.10
2022-09-01T19:28:25.390Z,1.40
2022-09-01T19:31:16.123Z,1.33
2022-09-01T19:33:47.704Z,1.20
2022-09-01T19:36:31.162Z,1.20
2022-09-01T19:38:58.919Z,1.33
2022-09-01T19:41:33.192Z,1.52
2022-09-01T19:44:23.929Z,1.55
2022-09-01T19:47:03.050Z,1.42
2022-09-01T19:49:55.386Z,1.35
2022-09-01T19:52:40.671Z,1.58
2022-09-01T19:55:11.164Z,1.17
2022-09-01T19:57:56.479Z,1.63
2022-09-01T20:00:39.188Z,1.60
2022-09-01T20:03:18.780Z,1.40
2022-09-01T20:05:57.181Z,1.05
2022-09-01T20:08:37.850Z,1.20
2022-09-01T20:11:45.145Z,1.30
2022-09-01T20:14:39.138Z,0.90
2022-09-01T20:17:09.343Z,1.10
2022-09-01T20:20:00.960Z,0.90
2022-09-01T20:22:31.187Z,1.17
2022-09-01T20:25:09.847Z,1.13
2022-09-01T20:28:00.151Z,0.90
2022-09-01T20:30:37.186Z,1.10
2022-09-01T20:33:28.557Z,1.05
2022-09-01T20:36:08.914Z,1.13
2022-09-01T20:39:03.979Z,1.20
2022-09-01T20:41:39.623Z,1.30
2022-09-01T20:44:15.772Z,1.20
2022-09-01T20:46:43.000Z,1.20
2022-09-01T20:49:16.053Z,1.10
2022-09-01T20:52:08.526Z,1.10
2022-09-01T20:54:56.109Z,1.20
2022-09-01T20:57:52.185Z,0.93
2022-09-01T21:00:26.118Z,1.00
2022-09-01T21:03:17.796Z,1.35
2022-09-01T21:06:01.933Z,1.08
2022-09-01T21:08:43.533Z,1.10
2022-09-01T21:11:28.082Z,1.02
2022-09-01T21:14:22.885Z,1.10
2022-09-01T21:17:10.754Z,1.00
2022-09-01T21:19:59.086Z,1.00
2022-09-01T21:22:28.517Z,1.17
2022-09-01T21:24:56.235Z,0.95
2022-09-01T21:27:27.176Z,1.10
2022-09-01T21:29:56.742Z,1.00
2022-09-01T21:32:23.999Z,1.33
2022-09-01T21:34:53.328Z,1.00
2022-09-01T21:37:22.609Z,1.20
2022-09-01T21:39:53.635Z,1.05
2022-09-01T21:42:32.864Z,1.42
2022-09-01T21:45:02.424Z,1.45
2022-09-01T21:47:31.255Z,1.20
2022-09-01T21:49:59.014Z,1.05
2022-09-01T21:52:26.785Z,1.10
2022-09-01T21:54:53.959Z,1.20
2022-09-01T21:57:23.111Z,1.20
2022-09-01T21:59:51.869Z,1.48
2022-09-01T22:02:20.623Z,1.30
2022-09-01T22:04:56.035Z,1.27
2022-09-01T22:07:24.365Z,1.20
2022-09-01T22:09:52.043Z,1.30
2022-09-01T22:12:19.418Z,1.40
2022-09-01T22:14:46.712Z,1.20
2022-09-01T22:17:13.803Z,1.13
2022-09-01T22:19:41.662Z,1.00
2022-09-01T22:22:11.998Z,1.20
2022-09-01T22:24:39.115Z,1.13
2022-09-01T22:27:06.130Z,1.05
2022-09-01T22:29:33.187Z,1.48
2022-09-01T22:32:00.576Z,1.25
2022-09-01T22:34:27.568Z,1.13
2022-09-01T22:36:54.667Z,1.30
2022-09-01T22:39:22.437Z,1.10
2022-09-01T22:41:53.098Z,1.25
2022-09-01T22:44:20.739Z,1.30
2022-09-01T22:46:48.108Z,1.30
2022-09-01T22:49:15.207Z,1.38
2022-09-01T22:51:43.172Z,1.45
2022-09-01T22:54:11.755Z,1.42
2022-09-01T22:56:41.007Z,1.27
2022-09-01T22:59:11.759Z,1.17
2022-09-01T23:01:42.909Z,1.33
2022-09-01T23:04:12.575Z,1.30
2022-09-01T23:06:43.339Z,1.50
2022-09-01T23:09:10.870Z,1.20
2022-09-01T23:11:38.247Z,1.20
2022-09-01T23:14:06.732Z,1.10
2022-09-01T23:16:34.666Z,1.08
2022-09-01T23:19:02.556Z,1.30
2022-09-01T23:21:33.226Z,1.48
2022-09-01T23:24:01.276Z,1.30
2022-09-01T23:26:30.556Z,1.15
2022-09-01T23:28:59.280Z,1.10
2022-09-01T23:31:30.189Z,1.35
2022-09-01T23:33:57.671Z,1.10
2022-09-01T23:36:27.206Z,1.05
2022-09-01T23:38:54.743Z,1.10
2022-09-01T23:41:29.993Z,1.30
2022-09-01T23:44:01.470Z,1.15
2022-09-01T23:46:34.539Z,1.23
2022-09-01T23:49:02.632Z,1.30
2022-09-01T23:51:29.741Z,1.60
2022-09-01T23:53:57.283Z,1.13
2022-09-01T23:56:26.248Z,1.20
2022-09-01T23:58:53.540Z,1.27
